Time;durP1;ratioP1;P1;durP2;ratioP2;P2;SDS_P1;SDS_P2;PMS_P1;PMS_P2;Temp;Humidity;BMP_temperature;BMP_pressure;BME280_temperature;BME280_humidity;BME280_pressure;Samples;Min_cycle;Max_cycle;Signal;HPM_P1;HPM_P2
2020/12/27 06:02:12;;;;;;;;;;;;;;;;;;5082698;28;20433;-62
2020/12/27 06:04:57;;;;;;;31.60;4.30;;;;;;;;;;5083715;28;19930;-61
2020/12/27 06:07:45;;;;;;;25.70;3.95;;;;;;;;;;5085144;28;20023;-61
2020/12/27 06:10:21;;;;;;;23.30;3.72;;;;;;;;;;5074091;28;20039;-61
2020/12/27 06:13:21;;;;;;;27.30;3.42;;;;;;;;;;5071499;28;20029;-61
2020/12/27 06:16:09;;;;;;;0.00;0.00;;;;;;;;;;5071796;28;20075;-61
2020/12/27 06:19:12;;;;;;;0.00;0.00;;;;;;;;;;5070799;28;20116;-61
2020/12/27 06:21:41;;;;;;;0.00;0.00;;;;;;;;;;5066952;28;20033;-62
2020/12/27 06:24:14;;;;;;;0.00;0.00;;;;;;;;;;5104953;28;20017;-62
2020/12/27 06:26:41;;;;;;;3.28;1.35;;;;;;;;;;5077200;28;20374;-62
2020/12/27 06:29:16;;;;;;;0.20;0.20;;;;;;;;;;5073795;28;20025;-61
2020/12/27 06:31:52;;;;;;;0.00;0.00;;;;;;;;;;5073955;28;20450;-62
2020/12/27 06:34:38;;;;;;;0.00;0.00;;;;;;;;;;5082159;28;20086;-63
2020/12/27 06:37:09;;;;;;;0.00;0.00;;;;;;;;;;5072741;28;20029;-62
2020/12/27 06:39:57;;;;;;;0.00;0.00;;;;;;;;;;5069412;28;20386;-62
2020/12/27 06:42:41;;;;;;;0.00;0.00;;;;;;;;;;5066729;28;20481;-62
2020/12/27 06:45:25;;;;;;;0.28;0.28;;;;;;;;;;5085932;28;20071;-62
2020/12/27 06:48:11;;;;;;;0.00;0.00;;;;;;;;;;5067293;28;20495;-62
2020/12/27 06:51:06;;;;;;;0.05;0.05;;;;;;;;;;5071554;28;20394;-62
2020/12/27 06:53:45;;;;;;;0.00;0.00;;;;;;;;;;5073490;28;20036;-62
2020/12/27 06:56:36;;;;;;;0.00;0.00;;;;;;;;;;5073187;28;20062;-62
2020/12/27 06:59:32;;;;;;;0.00;0.00;;;;;;;;;;5068558;28;20037;-62
2020/12/27 07:02:05;;;;;;;0.00;0.00;;;;;;;;;;5069740;28;20048;-61
2020/12/27 07:04:38;;;;;;;0.00;0.00;;;;;;;;;;5069968;28;20024;-62
2020/12/27 07:07:04;;;;;;;0.00;0.00;;;;;;;;;;5070350;28;20031;-62
2020/12/27 07:09:32;;;;;;;0.00;0.00;;;;;;;;;;5072017;28;20037;-62
2020/12/27 07:12:05;;;;;;;0.00;0.00;;;;;;;;;;5071931;28;20028;-62
2020/12/27 07:14:35;;;;;;;0.00;0.00;;;;;;;;;;5069925;28;20028;-62
2020/12/27 07:17:05;;;;;;;0.00;0.00;;;;;;;;;;5069921;28;20020;-62
2020/12/27 07:19:33;;;;;;;0.10;0.10;;;;;;;;;;5070940;28;20021;-63
2020/12/27 07:22:03;;;;;;;0.00;0.00;;;;;;;;;;5071001;28;20032;-62
2020/12/27 07:24:32;;;;;;;0.00;0.00;;;;;;;;;;5069315;28;20187;-61
2020/12/27 07:27:01;;;;;;;0.10;0.10;;;;;;;;;;5072384;28;20035;-63
2020/12/27 07:29:28;;;;;;;0.10;0.10;;;;;;;;;;5071335;28;20485;-62
2020/12/27 07:31:55;;;;;;;1.35;0.63;;;;;;;;;;5068862;28;20471;-62
2020/12/27 07:34:23;;;;;;;0.00;0.00;;;;;;;;;;5068794;28;20016;-62
2020/12/27 07:36:55;;;;;;;0.20;0.20;;;;;;;;;;5069043;28;20494;-62
2020/12/27 07:39:41;;;;;;;1.08;1.08;;;;;;;;;;5071536;28;20052;-62
2020/12/27 07:42:07;;;;;;;0.20;0.20;;;;;;;;;;5071099;28;20044;-64
2020/12/27 07:44:34;;;;;;;0.52;0.52;;;;;;;;;;5068959;28;20033;-62
2020/12/27 07:47:05;;;;;;;0.55;0.55;;;;;;;;;;5069034;28;20510;-63
2020/12/27 07:49:32;;;;;;;0.10;0.10;;;;;;;;;;5070215;28;20111;-66
2020/12/27 07:51:58;;;;;;;0.00;0.00;;;;;;;;;;5071961;28;20029;-61
2020/12/27 07:54:24;;;;;;;0.00;0.00;;;;;;;;;;5071468;28;20078;-62
2020/12/27 07:56:50;;;;;;;0.10;0.10;;;;;;;;;;5067640;28;20024;-62
2020/12/27 07:59:16;;;;;;;0.20;0.20;;;;;;;;;;5066578;28;20056;-62
2020/12/27 08:01:42;;;;;;;0.55;0.55;;;;;;;;;;5068054;28;20041;-63
2020/12/27 08:04:09;;;;;;;0.10;0.10;;;;;;;;;;5068522;28;20025;-67
2020/12/27 08:06:36;;;;;;;4.57;3.38;;;;;;;;;;5069716;28;20116;-63
2020/12/27 08:09:02;;;;;;;0.10;0.10;;;;;;;;;;5071016;28;20040;-62
2020/12/27 08:11:29;;;;;;;0.00;0.00;;;;;;;;;;5068150;28;20028;-62
2020/12/27 08:14:02;;;;;;;0.03;0.03;;;;;;;;;;5066120;28;20036;-63
2020/12/27 08:16:28;;;;;;;0.55;0.55;;;;;;;;;;5068686;28;20035;-62
2020/12/27 08:19:01;;;;;;;0.00;0.00;;;;;;;;;;5068173;28;20067;-62
2020/12/27 08:21:27;;;;;;;0.25;0.25;;;;;;;;;;5070484;28;20404;-63
2020/12/27 08:24:00;;;;;;;0.00;0.00;;;;;;;;;;5069566;28;20082;-62
2020/12/27 08:26:28;;;;;;;0.00;0.00;;;;;;;;;;5068405;28;20389;-63
2020/12/27 08:28:54;;;;;;;0.10;0.10;;;;;;;;;;5067949;28;20039;-62
2020/12/27 08:31:27;;;;;;;0.45;0.45;;;;;;;;;;5068080;28;20036;-62
2020/12/27 08:34:12;;;;;;;0.35;0.35;;;;;;;;;;5068679;28;20078;-62
2020/12/27 08:36:39;;;;;;;25.17;6.67;;;;;;;;;;5068565;28;20025;-62
2020/12/27 08:39:12;;;;;;;4.20;2.75;;;;;;;;;;5070699;28;20533;-62
2020/12/27 08:41:40;;;;;;;0.00;0.00;;;;;;;;;;5067421;28;20723;-62
2020/12/27 08:44:30;;;;;;;0.00;0.00;;;;;;;;;;5067798;28;20036;-62
2020/12/27 08:46:57;;;;;;;0.00;0.00;;;;;;;;;;5067265;28;20029;-63
2020/12/27 08:49:23;;;;;;;0.10;0.10;;;;;;;;;;5067573;28;20042;-61
2020/12/27 08:51:52;;;;;;;0.10;0.10;;;;;;;;;;5067942;28;20479;-62
2020/12/27 08:54:18;;;;;;;0.00;0.00;;;;;;;;;;5070872;28;20073;-63
2020/12/27 08:56:45;;;;;;;0.10;0.10;;;;;;;;;;5068631;28;20029;-62
2020/12/27 08:59:14;;;;;;;0.50;0.50;;;;;;;;;;5067396;28;20115;-63
2020/12/27 09:01:41;;;;;;;0.03;0.03;;;;;;;;;;5066830;28;20447;-61
2020/12/27 09:04:17;;;;;;;0.00;0.00;;;;;;;;;;5067316;28;20043;-62
2020/12/27 09:06:43;;;;;;;0.10;0.10;;;;;;;;;;5051662;28;20150;-62
2020/12/27 09:09:09;;;;;;;0.00;0.00;;;;;;;;;;5070359;28;20028;-61
2020/12/27 09:11:45;;;;;;;0.30;0.30;;;;;;;;;;5068606;28;20142;-62
2020/12/27 09:14:30;;;;;;;0.20;0.20;;;;;;;;;;5068027;28;20082;-62
2020/12/27 09:16:58;;;;;;;0.00;0.00;;;;;;;;;;5067273;28;20115;-62
2020/12/27 09:19:25;;;;;;;0.20;0.20;;;;;;;;;;5067802;28;20017;-61
2020/12/27 09:21:51;;;;;;;0.93;0.45;;;;;;;;;;5066447;28;20422;-61
2020/12/27 09:24:17;;;;;;;0.10;0.10;;;;;;;;;;5070682;28;20508;-61
2020/12/27 09:26:43;;;;;;;0.00;0.00;;;;;;;;;;5068438;28;20021;-61
2020/12/27 09:29:16;;;;;;;0.00;0.00;;;;;;;;;;5066981;28;20040;-62
2020/12/27 09:31:43;;;;;;;0.10;0.10;;;;;;;;;;5066631;28;20463;-62
2020/12/27 09:34:09;;;;;;;0.10;0.10;;;;;;;;;;5065847;28;20036;-62
2020/12/27 09:36:36;;;;;;;0.10;0.10;;;;;;;;;;5068266;28;20043;-62
2020/12/27 09:39:03;;;;;;;0.00;0.00;;;;;;;;;;5069310;28;20032;-61
2020/12/27 09:41:35;;;;;;;0.10;0.10;;;;;;;;;;5066679;28;20488;-62
2020/12/27 09:44:04;;;;;;;0.10;0.10;;;;;;;;;;5067240;28;20409;-62
2020/12/27 09:46:43;;;;;;;0.10;0.10;;;;;;;;;;5067250;28;20129;-62
2020/12/27 09:49:18;;;;;;;0.10;0.10;;;;;;;;;;5069191;28;20107;-62
2020/12/27 09:51:44;;;;;;;0.10;0.10;;;;;;;;;;5068212;28;20040;-63
2020/12/27 09:54:10;;;;;;;0.10;0.10;;;;;;;;;;5071203;28;20062;-63
2020/12/27 09:56:43;;;;;;;0.10;0.10;;;;;;;;;;5067139;28;20047;-63
2020/12/27 09:59:10;;;;;;;0.10;0.10;;;;;;;;;;5066579;28;20389;-62
2020/12/27 10:01:36;;;;;;;0.10;0.10;;;;;;;;;;5066733;28;20059;-63
2020/12/27 10:04:02;;;;;;;0.10;0.10;;;;;;;;;;5067107;28;20025;-63
2020/12/27 10:06:30;;;;;;;0.10;0.10;;;;;;;;;;5069098;28;20028;-63
2020/12/27 10:08:56;;;;;;;0.10;0.10;;;;;;;;;;5058521;28;20100;-63
2020/12/27 10:11:23;;;;;;;0.05;0.05;;;;;;;;;;5051168;28;20437;-63
2020/12/27 10:13:49;;;;;;;0.10;0.10;;;;;;;;;;5053418;28;20021;-63
2020/12/27 10:16:15;;;;;;;0.10;0.10;;;;;;;;;;5054677;28;20035;-63
2020/12/27 10:18:41;;;;;;;0.10;0.10;;;;;;;;;;5052859;28;20025;-64
2020/12/27 10:21:08;;;;;;;0.00;0.00;;;;;;;;;;5054903;28;20486;-64
2020/12/27 10:23:34;;;;;;;0.10;0.10;;;;;;;;;;5051019;28;20025;-63
2020/12/27 10:26:01;;;;;;;0.10;0.10;;;;;;;;;;5051838;28;20025;-62
2020/12/27 10:28:27;;;;;;;0.10;0.10;;;;;;;;;;5051938;28;20486;-61
2020/12/27 10:30:53;;;;;;;0.10;0.10;;;;;;;;;;5051056;28;20029;-60
2020/12/27 10:33:19;;;;;;;6.22;2.47;;;;;;;;;;5054155;28;20404;-62
2020/12/27 10:35:45;;;;;;;0.10;0.10;;;;;;;;;;5051484;28;20029;-59
2020/12/27 10:38:11;;;;;;;0.00;0.00;;;;;;;;;;5055303;28;20108;-59
2020/12/27 10:40:38;;;;;;;0.10;0.10;;;;;;;;;;5056028;28;20013;-61
2020/12/27 10:43:04;;;;;;;0.10;0.10;;;;;;;;;;5058281;28;20024;-65
2020/12/27 10:45:30;;;;;;;0.10;0.10;;;;;;;;;;5052390;28;20055;-63
2020/12/27 10:47:56;;;;;;;0.10;0.10;;;;;;;;;;5055570;28;20036;-61
2020/12/27 10:50:22;;;;;;;0.00;0.00;;;;;;;;;;5055349;28;20099;-61
2020/12/27 10:52:48;;;;;;;0.10;0.10;;;;;;;;;;5053565;28;20021;-62
2020/12/27 10:55:15;;;;;;;2.17;0.82;;;;;;;;;;5051571;28;20039;-61
2020/12/27 10:57:41;;;;;;;0.73;0.73;;;;;;;;;;5052417;28;20013;-62
2020/12/27 11:00:07;;;;;;;0.10;0.10;;;;;;;;;;5051728;28;20037;-62
2020/12/27 11:02:33;;;;;;;0.10;0.10;;;;;;;;;;5052650;28;20112;-61
2020/12/27 11:04:59;;;;;;;0.10;0.10;;;;;;;;;;5052263;28;20037;-62
2020/12/27 11:07:25;;;;;;;0.10;0.10;;;;;;;;;;5062700;28;20066;-62
2020/12/27 11:09:51;;;;;;;0.10;0.10;;;;;;;;;;5071258;28;20505;-62
2020/12/27 11:12:17;;;;;;;0.10;0.10;;;;;;;;;;5065547;28;20044;-62
2020/12/27 11:14:43;;;;;;;0.10;0.10;;;;;;;;;;5069546;28;20017;-65
2020/12/27 11:17:28;;;;;;;0.10;0.10;;;;;;;;;;5070713;28;20055;-64
2020/12/27 11:19:54;;;;;;;0.10;0.10;;;;;;;;;;5065131;28;21114;-63
2020/12/27 11:22:39;;;;;;;0.10;0.10;;;;;;;;;;5064768;28;20124;-62
2020/12/27 11:25:09;;;;;;;0.10;0.10;;;;;;;;;;5069390;28;20052;-63
2020/12/27 11:27:38;;;;;;;0.10;0.10;;;;;;;;;;5070328;28;23055;-63
2020/12/27 11:30:05;;;;;;;0.10;0.10;;;;;;;;;;5072329;28;20029;-63
2020/12/27 11:32:31;;;;;;;0.10;0.10;;;;;;;;;;5069887;28;20047;-63
2020/12/27 11:34:57;;;;;;;0.10;0.10;;;;;;;;;;5069833;28;20033;-63
2020/12/27 11:37:23;;;;;;;0.10;0.10;;;;;;;;;;5068626;28;20063;-63
2020/12/27 11:39:49;;;;;;;0.10;0.10;;;;;;;;;;5071236;28;20389;-63
2020/12/27 11:42:15;;;;;;;0.10;0.10;;;;;;;;;;5073330;28;20028;-64
2020/12/27 11:44:42;;;;;;;6.03;4.07;;;;;;;;;;5071598;28;20032;-63
2020/12/27 11:47:08;;;;;;;0.10;0.10;;;;;;;;;;5069639;28;20029;-63
2020/12/27 11:49:34;;;;;;;5.28;2.25;;;;;;;;;;5069242;28;20032;-63
2020/12/27 11:52:00;;;;;;;0.20;0.20;;;;;;;;;;5069598;28;20025;-63
2020/12/27 11:54:27;;;;;;;0.10;0.10;;;;;;;;;;5071696;28;20062;-63
2020/12/27 11:56:56;;;;;;;0.10;0.10;;;;;;;;;;5069438;28;20047;-63
2020/12/27 11:59:22;;;;;;;0.10;0.10;;;;;;;;;;5069073;28;20024;-63
2020/12/27 12:01:49;;;;;;;0.10;0.10;;;;;;;;;;5068867;28;20048;-63
2020/12/27 12:04:15;;;;;;;0.10;0.10;;;;;;;;;;5070414;28;20045;-63
2020/12/27 12:06:42;;;;;;;0.10;0.10;;;;;;;;;;5071550;28;20035;-63
2020/12/27 12:09:08;;;;;;;0.10;0.10;;;;;;;;;;5076950;28;20027;-63
2020/12/27 12:11:35;;;;;;;0.10;0.10;;;;;;;;;;5077368;28;20078;-63
2020/12/27 12:14:01;;;;;;;0.10;0.10;;;;;;;;;;5077167;28;20054;-63
2020/12/27 12:16:29;;;;;;;0.10;0.10;;;;;;;;;;5080390;28;20055;-63
2020/12/27 12:18:56;;;;;;;0.10;0.10;;;;;;;;;;5077774;28;20028;-64
2020/12/27 12:21:22;;;;;;;0.35;0.35;;;;;;;;;;5078884;28;20445;-63
2020/12/27 12:23:48;;;;;;;0.20;0.20;;;;;;;;;;5080525;28;20115;-63
2020/12/27 12:26:18;;;;;;;0.10;0.10;;;;;;;;;;5078192;28;20028;-63
2020/12/27 12:28:45;;;;;;;0.10;0.10;;;;;;;;;;5072308;28;20028;-63
2020/12/27 12:31:11;;;;;;;0.10;0.10;;;;;;;;;;5077516;28;20025;-63
2020/12/27 12:33:38;;;;;;;0.40;0.40;;;;;;;;;;5073727;28;20123;-63
2020/12/27 12:36:04;;;;;;;0.10;0.10;;;;;;;;;;5075133;28;20035;-63
2020/12/27 12:38:30;;;;;;;0.10;0.10;;;;;;;;;;5079218;28;20066;-63
2020/12/27 12:40:56;;;;;;;0.10;0.10;;;;;;;;;;5080514;28;20408;-63
2020/12/27 12:43:22;;;;;;;0.10;0.10;;;;;;;;;;5079826;28;20032;-63
2020/12/27 12:45:48;;;;;;;0.10;0.10;;;;;;;;;;5078953;28;20020;-63
2020/12/27 12:48:15;;;;;;;0.30;0.30;;;;;;;;;;5082138;28;20020;-63
2020/12/27 12:50:41;;;;;;;0.10;0.10;;;;;;;;;;5068202;28;20043;-64
2020/12/27 12:53:07;;;;;;;0.15;0.15;;;;;;;;;;5068144;28;20107;-63
2020/12/27 12:55:33;;;;;;;0.10;0.10;;;;;;;;;;5068331;28;20028;-64
2020/12/27 12:57:59;;;;;;;0.28;0.28;;;;;;;;;;5069082;28;20107;-63
2020/12/27 13:00:26;;;;;;;0.10;0.10;;;;;;;;;;5069407;28;20142;-64
2020/12/27 13:02:52;;;;;;;0.10;0.10;;;;;;;;;;5070091;28;20078;-63
2020/12/27 13:05:18;;;;;;;0.10;0.10;;;;;;;;;;5068679;28;20041;-63
2020/12/27 13:07:44;;;;;;;0.20;0.20;;;;;;;;;;5067510;28;20021;-64
2020/12/27 13:10:10;;;;;;;0.10;0.10;;;;;;;;;;5069322;28;20040;-64
2020/12/27 13:12:36;;;;;;;1.40;1.40;;;;;;;;;;5069063;28;23038;-63
2020/12/27 13:15:02;;;;;;;0.10;0.10;;;;;;;;;;5069867;28;20016;-64
2020/12/27 13:17:28;;;;;;;0.20;0.20;;;;;;;;;;5069369;28;20466;-64
2020/12/27 13:19:54;;;;;;;0.10;0.10;;;;;;;;;;5069049;28;20032;-63
2020/12/27 13:22:20;;;;;;;0.20;0.20;;;;;;;;;;5068685;28;20015;-63
2020/12/27 13:24:47;;;;;;;0.10;0.10;;;;;;;;;;5067647;28;20094;-64
2020/12/27 13:27:13;;;;;;;0.10;0.10;;;;;;;;;;5070884;28;20031;-63
2020/12/27 13:29:39;;;;;;;0.10;0.10;;;;;;;;;;5067452;28;20028;-63
2020/12/27 13:32:05;;;;;;;0.10;0.10;;;;;;;;;;5067738;28;20154;-63
2020/12/27 13:34:31;;;;;;;0.10;0.10;;;;;;;;;;5067736;28;20539;-64
2020/12/27 13:36:57;;;;;;;0.22;0.22;;;;;;;;;;5067425;28;20025;-63
2020/12/27 13:39:23;;;;;;;0.17;0.17;;;;;;;;;;5069712;28;20029;-64
2020/12/27 13:41:49;;;;;;;0.10;0.10;;;;;;;;;;5068542;28;20017;-63
2020/12/27 13:44:15;;;;;;;0.10;0.10;;;;;;;;;;5067586;28;20035;-64
2020/12/27 13:46:42;;;;;;;0.10;0.10;;;;;;;;;;5067471;28;20104;-63
2020/12/27 13:49:08;;;;;;;0.10;0.10;;;;;;;;;;5069229;28;20032;-63
2020/12/27 13:51:34;;;;;;;0.20;0.20;;;;;;;;;;5068719;28;20090;-63
2020/12/27 13:54:01;;;;;;;0.10;0.10;;;;;;;;;;5069671;28;20031;-63
2020/12/27 13:56:27;;;;;;;0.15;0.15;;;;;;;;;;5066069;28;20025;-63
2020/12/27 13:58:54;;;;;;;0.10;0.10;;;;;;;;;;5067304;28;20027;-63
2020/12/27 14:01:20;;;;;;;0.20;0.20;;;;;;;;;;5067101;28;20083;-63
2020/12/27 14:03:46;;;;;;;0.73;0.73;;;;;;;;;;5067566;28;20021;-63
2020/12/27 14:06:13;;;;;;;0.10;0.10;;;;;;;;;;5070705;28;20040;-63
2020/12/27 14:08:39;;;;;;;0.10;0.10;;;;;;;;;;5065727;28;20370;-63
2020/12/27 14:11:09;;;;;;;0.10;0.10;;;;;;;;;;5067082;28;20648;-63
2020/12/27 14:13:35;;;;;;;0.10;0.10;;;;;;;;;;5071130;28;20556;-63
2020/12/27 14:16:02;;;;;;;0.10;0.10;;;;;;;;;;5071433;28;20059;-63
2020/12/27 14:18:28;;;;;;;1.80;1.70;;;;;;;;;;5073167;28;20078;-63
2020/12/27 14:20:54;;;;;;;0.10;0.10;;;;;;;;;;5071745;28;20074;-63
2020/12/27 14:23:20;;;;;;;0.10;0.10;;;;;;;;;;5070457;28;20045;-63
2020/12/27 14:25:46;;;;;;;0.32;0.32;;;;;;;;;;5070440;28;20149;-63
2020/12/27 14:28:12;;;;;;;0.10;0.10;;;;;;;;;;5070521;28;20047;-64
2020/12/27 14:30:38;;;;;;;0.20;0.20;;;;;;;;;;5071817;28;20047;-63
2020/12/27 14:33:05;;;;;;;0.10;0.10;;;;;;;;;;5073660;28;20378;-63
2020/12/27 14:35:31;;;;;;;0.10;0.10;;;;;;;;;;5064708;28;20108;-63
2020/12/27 14:37:57;;;;;;;0.13;0.13;;;;;;;;;;5065712;28;20032;-63
2020/12/27 14:40:23;;;;;;;0.10;0.10;;;;;;;;;;5070864;28;20447;-63
2020/12/27 14:42:49;;;;;;;0.10;0.10;;;;;;;;;;5070652;28;20089;-63
2020/12/27 14:45:15;;;;;;;0.20;0.20;;;;;;;;;;5074068;28;20397;-63
2020/12/27 14:47:41;;;;;;;0.38;0.38;;;;;;;;;;5070656;28;20028;-63
2020/12/27 14:50:07;;;;;;;0.20;0.20;;;;;;;;;;5069405;28;20051;-67
2020/12/27 14:52:33;;;;;;;0.22;0.22;;;;;;;;;;5066902;28;20008;-67
2020/12/27 14:55:00;;;;;;;0.20;0.20;;;;;;;;;;5069990;28;20110;-68
2020/12/27 14:57:26;;;;;;;0.50;0.50;;;;;;;;;;5067987;28;20020;-66
2020/12/27 14:59:52;;;;;;;0.30;0.30;;;;;;;;;;5060727;28;20100;-66
2020/12/27 15:02:18;;;;;;;0.20;0.20;;;;;;;;;;5066787;28;20107;-65
2020/12/27 15:04:44;;;;;;;0.20;0.20;;;;;;;;;;5068732;28;20032;-66
2020/12/27 15:07:10;;;;;;;0.20;0.20;;;;;;;;;;5069692;28;20059;-66
2020/12/27 15:09:39;;;;;;;0.22;0.22;;;;;;;;;;5071719;28;20041;-66
2020/12/27 15:12:05;;;;;;;0.28;0.28;;;;;;;;;;5072400;28;20044;-66
2020/12/27 15:14:33;;;;;;;0.22;0.22;;;;;;;;;;5069539;28;20433;-66
2020/12/27 15:16:59;;;;;;;0.20;0.20;;;;;;;;;;5069664;28;20024;-66
2020/12/27 15:19:25;;;;;;;0.30;0.30;;;;;;;;;;5073785;28;20024;-67
2020/12/27 15:21:51;;;;;;;0.20;0.20;;;;;;;;;;5083356;28;20414;-66
2020/12/27 15:24:17;;;;;;;2.15;1.95;;;;;;;;;;5072640;28;20044;-66
2020/12/27 15:26:43;;;;;;;0.20;0.20;;;;;;;;;;5069987;28;20059;-66
2020/12/27 15:29:09;;;;;;;0.10;0.10;;;;;;;;;;5067720;28;20024;-66
2020/12/27 15:31:35;;;;;;;0.20;0.20;;;;;;;;;;5067153;28;20549;-66
2020/12/27 15:34:02;;;;;;;0.20;0.20;;;;;;;;;;5069405;28;20032;-67
2020/12/27 15:36:28;;;;;;;0.15;0.15;;;;;;;;;;5071749;28;20533;-67
2020/12/27 15:38:54;;;;;;;0.10;0.10;;;;;;;;;;5070320;28;20024;-67
2020/12/27 15:41:21;;;;;;;0.10;0.10;;;;;;;;;;5069432;28;20020;-67
2020/12/27 15:43:47;;;;;;;0.20;0.20;;;;;;;;;;5069441;28;20162;-68
2020/12/27 15:46:13;;;;;;;0.20;0.20;;;;;;;;;;5069263;28;20024;-67
2020/12/27 15:48:39;;;;;;;0.17;0.17;;;;;;;;;;5069093;28;23029;-67
2020/12/27 15:51:05;;;;;;;0.20;0.20;;;;;;;;;;5071950;28;20525;-67
2020/12/27 15:53:31;;;;;;;0.15;0.15;;;;;;;;;;5069558;28;20137;-67
2020/12/27 15:55:58;;;;;;;0.20;0.20;;;;;;;;;;5069253;28;20028;-67
2020/12/27 15:58:24;;;;;;;0.20;0.20;;;;;;;;;;5068795;28;20036;-67
2020/12/27 16:00:50;;;;;;;0.20;0.20;;;;;;;;;;5068099;28;20045;-66
2020/12/27 16:03:16;;;;;;;0.10;0.10;;;;;;;;;;5063114;28;20456;-67
2020/12/27 16:05:42;;;;;;;0.20;0.20;;;;;;;;;;5065150;28;20024;-67
2020/12/27 16:08:08;;;;;;;0.15;0.15;;;;;;;;;;5062909;28;20374;-67
2020/12/27 16:10:34;;;;;;;0.10;0.10;;;;;;;;;;5056265;28;20032;-67
2020/12/27 16:13:00;;;;;;;0.20;0.20;;;;;;;;;;5060574;28;20021;-64
2020/12/27 16:15:27;;;;;;;0.15;0.15;;;;;;;;;;5061836;28;20542;-62
2020/12/27 16:17:53;;;;;;;0.20;0.20;;;;;;;;;;5069045;28;20085;-66
2020/12/27 16:20:19;;;;;;;0.10;0.10;;;;;;;;;;5065225;28;20103;-62
2020/12/27 16:22:45;;;;;;;0.20;0.20;;;;;;;;;;5067763;28;20033;-62
2020/12/27 16:25:11;;;;;;;0.10;0.10;;;;;;;;;;5068186;28;20020;-61
2020/12/27 16:27:37;;;;;;;0.10;0.10;;;;;;;;;;5068215;28;20047;-63
2020/12/27 16:30:04;;;;;;;0.20;0.20;;;;;;;;;;5065567;28;20031;-62
2020/12/27 16:32:30;;;;;;;0.20;0.20;;;;;;;;;;5067022;28;20024;-62
2020/12/27 16:34:57;;;;;;;0.20;0.20;;;;;;;;;;5065742;28;20441;-62
2020/12/27 16:37:23;;;;;;;0.10;0.10;;;;;;;;;;5068087;28;20032;-62
2020/12/27 16:39:49;;;;;;;0.10;0.10;;;;;;;;;;5066537;28;20062;-61
2020/12/27 16:42:15;;;;;;;0.20;0.20;;;;;;;;;;5069995;28;20058;-60
2020/12/27 16:44:41;;;;;;;0.10;0.10;;;;;;;;;;5067861;28;20401;-62
2020/12/27 16:47:08;;;;;;;0.20;0.20;;;;;;;;;;5067312;28;20032;-62
2020/12/27 16:49:34;;;;;;;0.40;0.40;;;;;;;;;;5066026;28;20021;-61
2020/12/27 16:52:00;;;;;;;0.10;0.10;;;;;;;;;;5066151;28;20580;-60
2020/12/27 16:54:26;;;;;;;0.10;0.10;;;;;;;;;;5057517;28;20059;-62
2020/12/27 16:56:53;;;;;;;0.20;0.20;;;;;;;;;;5060195;28;20094;-61
2020/12/27 16:59:19;;;;;;;0.17;0.17;;;;;;;;;;5059336;28;20397;-62
2020/12/27 17:01:52;;;;;;;0.17;0.17;;;;;;;;;;5059688;28;20076;-62
2020/12/27 17:04:18;;;;;;;0.10;0.10;;;;;;;;;;5066118;28;20032;-62
2020/12/27 17:06:50;;;;;;;0.30;0.30;;;;;;;;;;5068882;28;20064;-63
2020/12/27 17:09:16;;;;;;;0.30;0.30;;;;;;;;;;5065283;28;20029;-61
2020/12/27 17:11:43;;;;;;;0.20;0.20;;;;;;;;;;5060693;28;20047;-61
2020/12/27 17:14:09;;;;;;;0.20;0.20;;;;;;;;;;5060954;28;20524;-60
2020/12/27 17:16:38;;;;;;;0.20;0.20;;;;;;;;;;5056549;28;20032;-60
2020/12/27 17:19:04;;;;;;;0.20;0.20;;;;;;;;;;5061404;28;20028;-60
2020/12/27 17:21:30;;;;;;;0.30;0.30;;;;;;;;;;5068915;28;20060;-63
2020/12/27 17:23:57;;;;;;;0.20;0.20;;;;;;;;;;5069663;28;20036;-61
2020/12/27 17:26:23;;;;;;;0.20;0.20;;;;;;;;;;5067756;28;20500;-63
2020/12/27 17:28:49;;;;;;;0.10;0.10;;;;;;;;;;5067320;28;20036;-65
2020/12/27 17:31:24;;;;;;;0.20;0.20;;;;;;;;;;5067670;28;20040;-61
2020/12/27 17:33:50;;;;;;;0.20;0.20;;;;;;;;;;5052037;28;20052;-61
2020/12/27 17:36:22;;;;;;;0.25;0.25;;;;;;;;;;5071189;28;20036;-62
2020/12/27 17:38:48;;;;;;;0.20;0.20;;;;;;;;;;5068024;28;20032;-61
2020/12/27 17:41:14;;;;;;;0.20;0.20;;;;;;;;;;5067232;28;20405;-61
2020/12/27 17:43:40;;;;;;;0.20;0.20;;;;;;;;;;5067153;28;20090;-61
2020/12/27 17:46:07;;;;;;;0.20;0.20;;;;;;;;;;5068548;28;20021;-61
2020/12/27 17:48:33;;;;;;;0.20;0.20;;;;;;;;;;5069640;28;20024;-60
2020/12/27 17:51:02;;;;;;;0.10;0.10;;;;;;;;;;5068667;28;20040;-61
2020/12/27 17:53:28;;;;;;;0.20;0.20;;;;;;;;;;5067557;28;20382;-60
2020/12/27 17:55:54;;;;;;;0.20;0.20;;;;;;;;;;5067179;28;20473;-61
2020/12/27 17:58:20;;;;;;;0.25;0.25;;;;;;;;;;5067239;28;20146;-61
2020/12/27 18:00:46;;;;;;;0.17;0.17;;;;;;;;;;5067440;28;20052;-61
2020/12/27 18:03:13;;;;;;;0.20;0.20;;;;;;;;;;5070805;28;20021;-61
2020/12/27 18:05:39;;;;;;;0.20;0.20;;;;;;;;;;5066376;28;20032;-61
2020/12/27 18:08:05;;;;;;;0.20;0.20;;;;;;;;;;5064877;28;20021;-60
2020/12/27 18:10:31;;;;;;;0.20;0.20;;;;;;;;;;5066833;28;20115;-61
2020/12/27 18:12:57;;;;;;;0.20;0.20;;;;;;;;;;5065481;28;20099;-60
2020/12/27 18:15:23;;;;;;;0.20;0.20;;;;;;;;;;5068059;28;20032;-60
2020/12/27 18:17:50;;;;;;;0.20;0.20;;;;;;;;;;5069542;28;20097;-60
2020/12/27 18:20:16;;;;;;;0.25;0.25;;;;;;;;;;5067149;28;20024;-60
2020/12/27 18:22:42;;;;;;;0.10;0.10;;;;;;;;;;5066872;28;20025;-60
2020/12/27 18:25:08;;;;;;;0.20;0.20;;;;;;;;;;5066848;28;20179;-60
2020/12/27 18:27:34;;;;;;;1.85;1.75;;;;;;;;;;5068869;28;20061;-60
2020/12/27 18:30:00;;;;;;;0.20;0.20;;;;;;;;;;5068611;28;20029;-61
2020/12/27 18:32:28;;;;;;;0.35;0.35;;;;;;;;;;5064230;28;20028;-60
2020/12/27 18:34:54;;;;;;;0.13;0.13;;;;;;;;;;5059534;28;20227;-61
2020/12/27 18:37:22;;;;;;;0.20;0.20;;;;;;;;;;5067073;28;20520;-61
2020/12/27 18:39:49;;;;;;;5.47;3.00;;;;;;;;;;5066480;28;20029;-61
2020/12/27 18:42:15;;;;;;;0.17;0.17;;;;;;;;;;5070325;28;20086;-61
2020/12/27 18:44:41;;;;;;;0.30;0.30;;;;;;;;;;5066514;28;20031;-61
2020/12/27 18:47:07;;;;;;;0.98;0.90;;;;;;;;;;5066705;28;20040;-61
2020/12/27 18:49:33;;;;;;;0.20;0.20;;;;;;;;;;5066640;28;20482;-62
2020/12/27 18:51:59;;;;;;;0.20;0.20;;;;;;;;;;5068265;28;20041;-61
2020/12/27 18:54:25;;;;;;;0.20;0.20;;;;;;;;;;5069532;28;20446;-61
2020/12/27 18:56:58;;;;;;;0.10;0.10;;;;;;;;;;5069729;28;20024;-61
2020/12/27 18:59:24;;;;;;;0.20;0.20;;;;;;;;;;5070209;28;20031;-64
2020/12/27 19:01:50;;;;;;;0.20;0.20;;;;;;;;;;5066449;28;20053;-58
2020/12/27 19:04:16;;;;;;;0.10;0.10;;;;;;;;;;5068977;28;20028;-63
2020/12/27 19:06:42;;;;;;;0.10;0.10;;;;;;;;;;5063948;28;20550;-62
2020/12/27 19:09:08;;;;;;;0.17;0.17;;;;;;;;;;5052194;28;20108;-62
2020/12/27 19:11:36;;;;;;;0.20;0.20;;;;;;;;;;5052207;28;20032;-62
2020/12/27 19:14:02;;;;;;;0.25;0.25;;;;;;;;;;5052465;28;20116;-62
2020/12/27 19:16:28;;;;;;;0.20;0.20;;;;;;;;;;5054577;28;20398;-62
2020/12/27 19:18:54;;;;;;;0.20;0.20;;;;;;;;;;5051840;28;20025;-62
2020/12/27 19:21:20;;;;;;;0.20;0.20;;;;;;;;;;5050126;28;20031;-62
2020/12/27 19:23:46;;;;;;;0.10;0.10;;;;;;;;;;5053962;28;20021;-62
2020/12/27 19:26:19;;;;;;;0.20;0.20;;;;;;;;;;5051739;28;20055;-62
2020/12/27 19:28:45;;;;;;;0.10;0.10;;;;;;;;;;5052665;28;20370;-62
2020/12/27 19:31:11;;;;;;;0.10;0.10;;;;;;;;;;5050101;28;20032;-62
2020/12/27 19:33:37;;;;;;;0.38;0.38;;;;;;;;;;5051839;28;20090;-62
2020/12/27 19:36:03;;;;;;;0.20;0.20;;;;;;;;;;5051102;28;20033;-61
2020/12/27 19:38:30;;;;;;;0.32;0.32;;;;;;;;;;5049479;28;20028;-62
2020/12/27 19:40:56;;;;;;;0.65;0.65;;;;;;;;;;5050040;28;20090;-61
2020/12/27 19:43:22;;;;;;;0.20;0.20;;;;;;;;;;5048452;28;20440;-61
2020/12/27 19:45:48;;;;;;;0.20;0.20;;;;;;;;;;5049444;28;20024;-61
2020/12/27 19:48:14;;;;;;;0.20;0.20;;;;;;;;;;5050480;28;20013;-62
2020/12/27 19:50:40;;;;;;;0.10;0.10;;;;;;;;;;5052747;28;20410;-62
2020/12/27 19:53:09;;;;;;;0.10;0.10;;;;;;;;;;5051036;28;20555;-62
2020/12/27 19:55:35;;;;;;;0.20;0.20;;;;;;;;;;5051459;28;20090;-62
2020/12/27 19:58:01;;;;;;;0.20;0.20;;;;;;;;;;5052748;28;20103;-61
2020/12/27 20:00:27;;;;;;;0.20;0.20;;;;;;;;;;5050551;28;20048;-62
2020/12/27 20:02:53;;;;;;;0.20;0.20;;;;;;;;;;5054297;28;20474;-62
2020/12/27 20:05:19;;;;;;;0.40;0.40;;;;;;;;;;5052877;28;20021;-62
2020/12/27 20:07:45;;;;;;;0.20;0.20;;;;;;;;;;5051915;28;20509;-62
2020/12/27 20:10:11;;;;;;;0.47;0.47;;;;;;;;;;5048944;28;20497;-62
2020/12/27 20:12:37;;;;;;;0.20;0.20;;;;;;;;;;5049893;28;20056;-62
2020/12/27 20:15:05;;;;;;;0.20;0.20;;;;;;;;;;5051970;28;20025;-62
2020/12/27 20:17:32;;;;;;;0.10;0.10;;;;;;;;;;5052573;28;20013;-62
2020/12/27 20:19:58;;;;;;;0.20;0.20;;;;;;;;;;5050614;28;20048;-62
2020/12/27 20:22:24;;;;;;;0.20;0.20;;;;;;;;;;5050405;28;20493;-63
2020/12/27 20:24:51;;;;;;;0.10;0.10;;;;;;;;;;5051058;28;20154;-62
2020/12/27 20:27:17;;;;;;;0.20;0.20;;;;;;;;;;5050609;28;20421;-62
2020/12/27 20:29:43;;;;;;;0.20;0.20;;;;;;;;;;5051399;28;20167;-61
2020/12/27 20:32:09;;;;;;;0.28;0.28;;;;;;;;;;5051309;28;20440;-62
2020/12/27 20:34:35;;;;;;;0.20;0.20;;;;;;;;;;5051311;28;20032;-62
2020/12/27 20:37:02;;;;;;;0.10;0.10;;;;;;;;;;5049459;28;20085;-62
2020/12/27 20:39:28;;;;;;;0.20;0.20;;;;;;;;;;5049830;28;20009;-62
2020/12/27 20:41:54;;;;;;;0.20;0.20;;;;;;;;;;5051111;28;20032;-62
2020/12/27 20:44:21;;;;;;;0.20;0.20;;;;;;;;;;5058656;28;20220;-62
2020/12/27 20:46:47;;;;;;;0.20;0.20;;;;;;;;;;5062934;28;20068;-62
2020/12/27 20:49:13;;;;;;;0.20;0.20;;;;;;;;;;5061977;28;20025;-62